createdAt,value
2023-08-11T00:00:09.457Z,84.25
2023-08-11T00:02:39.164Z,84.47
2023-08-11T00:05:12.465Z,84.41
2023-08-11T00:07:39.048Z,84.51
2023-08-11T00:10:06.858Z,84.35
2023-08-11T00:12:33.317Z,84.50
2023-08-11T00:14:59.741Z,84.54
2023-08-11T00:17:26.384Z,85.32
2023-08-11T00:19:52.847Z,85.29
2023-08-11T00:22:19.341Z,84.97
2023-08-11T00:24:45.856Z,84.81
2023-08-11T00:27:12.302Z,85.45
2023-08-11T00:29:38.900Z,85.52
2023-08-11T00:32:05.712Z,84.86
2023-08-11T00:34:32.205Z,84.67
2023-08-11T00:36:58.668Z,84.93
2023-08-11T00:39:25.227Z,85.13
2023-08-11T00:41:51.675Z,85.56
2023-08-11T00:44:18.136Z,85.02
2023-08-11T00:46:46.518Z,85.17
2023-08-11T00:49:15.030Z,85.30
2023-08-11T00:51:42.554Z,85.68
2023-08-11T00:54:11.658Z,85.39
2023-08-11T00:56:43.018Z,85.49
2023-08-11T00:59:10.937Z,85.64
2023-08-11T01:01:37.368Z,85.46
2023-08-11T01:04:05.664Z,85.51
2023-08-11T01:06:42.905Z,85.67
2023-08-11T01:09:20.566Z,85.88
2023-08-11T01:12:24.599Z,85.69
2023-08-11T01:15:14.740Z,85.71
2023-08-11T01:17:43.069Z,85.81
2023-08-11T01:20:12.178Z,85.87
2023-08-11T01:22:44.209Z,85.80
2023-08-11T01:25:12.717Z,86.01
2023-08-11T01:27:55.100Z,86.04
2023-08-11T01:30:22.332Z,86.02
2023-08-11T01:32:49.093Z,85.83
2023-08-11T01:35:19.571Z,85.73
2023-08-11T01:37:52.500Z,85.98
2023-08-11T01:40:19.973Z,85.94
2023-08-11T01:42:53.809Z,86.02
2023-08-11T01:45:23.944Z,85.95
2023-08-11T01:47:51.776Z,85.97
2023-08-11T01:50:20.041Z,85.86
2023-08-11T01:52:48.523Z,85.84
2023-08-11T01:55:15.967Z,85.71
2023-08-11T01:57:52.321Z,85.91
2023-08-11T02:00:24.762Z,86.10
2023-08-11T02:02:51.266Z,85.78
2023-08-11T02:05:17.881Z,85.71
2023-08-11T02:07:46.100Z,85.91
2023-08-11T02:10:13.188Z,86.21
2023-08-11T02:12:41.192Z,86.01
2023-08-11T02:15:09.134Z,86.03
2023-08-11T02:17:36.459Z,86.34
2023-08-11T02:20:14.749Z,86.69
2023-08-11T02:22:41.221Z,86.84
2023-08-11T02:25:08.303Z,87.06
2023-08-11T02:27:36.814Z,87.08
2023-08-11T02:30:06.293Z,87.17
2023-08-11T02:32:33.694Z,87.16
2023-08-11T02:35:00.296Z,86.98
2023-08-11T02:37:26.762Z,86.89
2023-08-11T02:39:53.218Z,87.34
2023-08-11T02:42:20.033Z,86.95
2023-08-11T02:44:46.509Z,87.05
2023-08-11T02:47:12.938Z,87.11
2023-08-11T02:49:39.646Z,86.91
2023-08-11T02:52:06.569Z,86.92
2023-08-11T02:54:33.738Z,87.13
2023-08-11T02:57:00.170Z,86.90
2023-08-11T02:59:26.598Z,87.08
2023-08-11T03:01:53.013Z,87.04
2023-08-11T03:04:19.486Z,87.17
2023-08-11T03:06:48.817Z,86.65
2023-08-11T03:09:15.562Z,86.65
2023-08-11T03:11:42.108Z,86.55
2023-08-11T03:14:08.629Z,86.56
2023-08-11T03:16:35.337Z,86.61
2023-08-11T03:19:02.638Z,86.83
2023-08-11T03:21:29.172Z,86.91
2023-08-11T03:23:56.188Z,86.49
2023-08-11T03:26:23.042Z,86.79
2023-08-11T03:28:49.964Z,86.99
2023-08-11T03:31:16.833Z,87.06
2023-08-11T03:33:45.464Z,86.91
2023-08-11T03:36:14.007Z,87.14
2023-08-11T03:38:42.398Z,87.26
2023-08-11T03:41:08.974Z,87.17
2023-08-11T03:43:37.018Z,87.16
2023-08-11T03:46:03.610Z,87.10
2023-08-11T03:48:30.040Z,87.27
2023-08-11T03:51:03.510Z,87.28
2023-08-11T03:53:31.166Z,86.93
2023-08-11T03:55:58.692Z,87.28
2023-08-11T03:58:27.929Z,86.86
2023-08-11T04:00:56.049Z,87.13
2023-08-11T04:03:23.530Z,87.36
2023-08-11T04:05:50.976Z,87.29
2023-08-11T04:08:17.926Z,87.02
2023-08-11T04:10:44.346Z,87.25
2023-08-11T04:13:10.812Z,87.14
2023-08-11T04:15:37.230Z,87.38
2023-08-11T04:18:04.010Z,87.23
2023-08-11T04:20:30.450Z,87.35
2023-08-11T04:22:57.737Z,87.27
2023-08-11T04:25:25.090Z,87.21
2023-08-11T04:27:52.258Z,87.31
2023-08-11T04:30:18.877Z,87.34
2023-08-11T04:32:47.990Z,87.23
2023-08-11T04:35:15.427Z,87.55
2023-08-11T04:37:42.664Z,87.58
2023-08-11T04:40:12.113Z,87.52
2023-08-11T04:42:44.372Z,87.45
2023-08-11T04:45:15.879Z,87.15
2023-08-11T04:47:42.678Z,87.51
2023-08-11T04:50:13.442Z,87.69
2023-08-11T04:52:40.029Z,87.79
2023-08-11T04:55:08.451Z,87.56
2023-08-11T04:57:35.854Z,87.73
2023-08-11T05:00:07.634Z,87.75
2023-08-11T05:02:34.282Z,87.57
2023-08-11T05:05:01.024Z,87.83
2023-08-11T05:07:27.528Z,87.59
2023-08-11T05:09:53.926Z,88.01
2023-08-11T05:12:20.352Z,87.43
2023-08-11T05:14:48.281Z,87.62
2023-08-11T05:17:15.140Z,87.38
2023-08-11T05:19:41.589Z,87.20
2023-08-11T05:22:08.069Z,86.76
2023-08-11T05:24:34.482Z,86.75
2023-08-11T05:27:00.898Z,86.70
2023-08-11T05:29:27.305Z,86.47
2023-08-11T05:31:53.743Z,86.20
2023-08-11T05:34:20.209Z,86.22
2023-08-11T05:36:46.914Z,85.91
2023-08-11T05:39:13.823Z,85.53
2023-08-11T05:41:41.662Z,85.77
2023-08-11T05:44:08.093Z,85.36
2023-08-11T05:46:34.503Z,85.47
2023-08-11T05:49:01.363Z,85.00
2023-08-11T05:51:27.815Z,85.30
2023-08-11T05:53:54.580Z,84.48
2023-08-11T05:56:21.136Z,84.57
2023-08-11T05:58:47.633Z,83.68
2023-08-11T06:01:14.098Z,83.62
2023-08-11T06:03:40.581Z,83.43
2023-08-11T06:06:06.985Z,82.01
2023-08-11T06:08:33.807Z,81.17
2023-08-11T06:11:00.222Z,81.56
2023-08-11T06:13:28.193Z,80.19
2023-08-11T06:15:54.725Z,79.27
2023-08-11T06:18:21.179Z,79.24
2023-08-11T06:20:48.345Z,79.56
2023-08-11T06:23:14.813Z,79.03
2023-08-11T06:25:41.276Z,79.18
2023-08-11T06:28:08.401Z,78.43
2023-08-11T06:30:35.179Z,78.35
2023-08-11T06:33:02.323Z,78.36
2023-08-11T06:35:28.863Z,78.08
2023-08-11T06:37:55.321Z,77.57
2023-08-11T06:40:22.867Z,77.17
2023-08-11T06:42:49.309Z,77.35
2023-08-11T06:45:15.807Z,76.28
2023-08-11T06:47:42.263Z,73.79
2023-08-11T06:50:09.245Z,74.50
2023-08-11T06:52:35.739Z,74.38
2023-08-11T06:55:02.167Z,73.81
2023-08-11T06:57:28.631Z,73.95
2023-08-11T06:59:55.073Z,73.60
2023-08-11T07:02:21.571Z,74.15
2023-08-11T07:04:49.290Z,73.28
2023-08-11T07:07:15.733Z,73.23
2023-08-11T07:09:42.567Z,72.92
2023-08-11T07:12:09.066Z,72.61
2023-08-11T07:14:35.470Z,71.85
2023-08-11T07:17:02.025Z,70.43
2023-08-11T07:19:28.500Z,70.47
2023-08-11T07:21:54.899Z,70.09
2023-08-11T07:24:21.312Z,70.55
2023-08-11T07:26:47.740Z,68.90
2023-08-11T07:29:14.138Z,68.46
2023-08-11T07:31:40.757Z,68.49
2023-08-11T07:34:07.374Z,68.63
2023-08-11T07:36:33.847Z,68.68
2023-08-11T07:39:16.856Z,68.62
2023-08-11T07:41:46.891Z,68.50
2023-08-11T07:44:13.369Z,67.59
2023-08-11T07:46:39.769Z,68.47
2023-08-11T07:49:06.185Z,67.02
2023-08-11T07:51:32.612Z,65.22
2023-08-11T07:53:59.285Z,65.66
2023-08-11T07:56:25.818Z,66.29
2023-08-11T07:58:54.027Z,63.01
2023-08-11T08:01:20.832Z,64.87
2023-08-11T08:03:47.344Z,65.34
2023-08-11T08:06:14.479Z,64.01
2023-08-11T08:08:40.889Z,65.83
2023-08-11T08:11:07.295Z,64.44
2023-08-11T08:13:33.707Z,63.71
2023-08-11T08:16:00.191Z,62.93
2023-08-11T08:18:28.921Z,63.42
2023-08-11T08:20:55.337Z,64.97
2023-08-11T08:23:22.825Z,61.73
2023-08-11T08:25:49.228Z,62.58
2023-08-11T08:28:16.005Z,62.12
2023-08-11T08:30:42.451Z,63.17
2023-08-11T08:33:09.121Z,62.88
2023-08-11T08:35:36.307Z,64.05
2023-08-11T08:38:02.980Z,64.09
2023-08-11T08:40:29.655Z,60.69
2023-08-11T08:42:56.158Z,61.63
2023-08-11T08:45:23.577Z,62.12
2023-08-11T08:47:50.802Z,59.50
2023-08-11T08:50:18.424Z,60.89
2023-08-11T08:52:44.931Z,59.17
2023-08-11T08:55:11.654Z,60.16
2023-08-11T08:57:38.229Z,57.83
2023-08-11T09:00:05.247Z,57.87
2023-08-11T09:02:32.374Z,58.37
2023-08-11T09:04:59.121Z,58.60
2023-08-11T09:07:25.767Z,58.14
2023-08-11T09:09:52.230Z,57.67
2023-08-11T09:12:18.819Z,58.99
2023-08-11T09:14:45.426Z,54.43
2023-08-11T09:17:12.292Z,54.71
2023-08-11T09:19:38.854Z,54.55
2023-08-11T09:22:14.957Z,55.12
2023-08-11T09:24:41.878Z,52.81
2023-08-11T09:27:08.356Z,54.56
2023-08-11T09:29:35.973Z,55.43
2023-08-11T09:32:04.246Z,53.56
2023-08-11T09:34:31.098Z,54.20
2023-08-11T09:36:57.582Z,55.11
2023-08-11T09:39:27.724Z,54.82
2023-08-11T09:41:54.542Z,53.73
2023-08-11T09:44:24.679Z,54.13
2023-08-11T09:46:51.790Z,54.61
2023-08-11T09:49:18.680Z,53.55
2023-08-11T09:51:46.843Z,54.45
2023-08-11T09:54:15.249Z,53.58
2023-08-11T09:56:43.647Z,51.13
2023-08-11T09:59:17.941Z,52.57
2023-08-11T10:01:45.828Z,53.34
2023-08-11T10:04:38.852Z,52.20
2023-08-11T10:07:15.917Z,47.52
2023-08-11T10:09:45.000Z,48.74
2023-08-11T10:12:12.781Z,50.33
2023-08-11T10:14:40.557Z,48.53
2023-08-11T10:17:07.402Z,46.39
2023-08-11T10:19:34.445Z,48.88
2023-08-11T10:22:01.008Z,49.19
2023-08-11T10:24:27.681Z,50.66
2023-08-11T10:26:54.625Z,51.45
2023-08-11T10:29:22.567Z,46.63
2023-08-11T10:31:58.032Z,47.21
2023-08-11T10:34:26.226Z,44.83
2023-08-11T10:36:57.147Z,47.86
2023-08-11T10:39:24.863Z,48.17
2023-08-11T10:41:51.461Z,49.37
2023-08-11T10:44:27.609Z,46.66
2023-08-11T10:46:54.143Z,48.36
2023-08-11T10:49:33.599Z,48.33
2023-08-11T10:52:02.166Z,46.35
2023-08-11T10:54:28.908Z,46.42
2023-08-11T10:56:55.472Z,47.46
2023-08-11T10:59:26.364Z,46.47
2023-08-11T11:01:54.885Z,47.56
2023-08-11T11:04:24.022Z,45.09
2023-08-11T11:06:54.102Z,44.94
2023-08-11T11:09:22.626Z,45.55
2023-08-11T11:11:52.143Z,44.95
2023-08-11T11:14:18.568Z,44.77
2023-08-11T11:16:45.204Z,44.31
2023-08-11T11:19:11.741Z,48.07
2023-08-11T11:21:41.340Z,46.40
2023-08-11T11:24:08.871Z,46.34
2023-08-11T11:26:35.686Z,46.00
2023-08-11T11:29:04.464Z,45.77
2023-08-11T11:31:33.690Z,42.48
2023-08-11T11:34:00.500Z,42.54
2023-08-11T11:36:27.211Z,45.03
2023-08-11T11:38:53.851Z,44.19
2023-08-11T11:41:21.357Z,45.36
2023-08-11T11:43:50.003Z,42.69
2023-08-11T11:46:19.086Z,44.24
2023-08-11T11:48:47.069Z,42.36
2023-08-11T11:51:15.598Z,45.24
2023-08-11T11:53:43.697Z,45.23
2023-08-11T11:56:15.412Z,43.92
2023-08-11T11:58:45.006Z,45.76
2023-08-11T12:01:16.462Z,42.72
2023-08-11T12:03:45.235Z,44.20
2023-08-11T12:06:12.478Z,42.70
2023-08-11T12:08:42.578Z,44.44
2023-08-11T12:11:12.177Z,46.29
2023-08-11T12:13:40.675Z,45.40
2023-08-11T12:16:09.071Z,44.71
2023-08-11T12:18:36.704Z,43.74
2023-08-11T12:21:03.462Z,43.97
2023-08-11T12:23:30.120Z,46.27
2023-08-11T12:25:56.603Z,42.98
2023-08-11T12:28:23.005Z,42.46
2023-08-11T12:30:49.549Z,41.55
2023-08-11T12:33:16.469Z,44.28
2023-08-11T12:35:43.564Z,43.87
2023-08-11T12:38:16.546Z,46.08
2023-08-11T12:40:44.892Z,45.26
2023-08-11T12:43:14.076Z,44.59
2023-08-11T12:45:42.305Z,44.93
2023-08-11T12:48:09.667Z,45.80
2023-08-11T12:50:37.273Z,43.84
2023-08-11T12:53:08.188Z,46.23
2023-08-11T12:55:35.840Z,46.02
2023-08-11T12:58:03.295Z,45.90
2023-08-11T13:00:30.111Z,44.30
2023-08-11T13:02:57.573Z,44.00
2023-08-11T13:05:25.210Z,45.36
2023-08-11T13:07:51.617Z,46.92
2023-08-11T13:10:18.131Z,44.67
2023-08-11T13:12:46.052Z,44.76
2023-08-11T13:15:12.677Z,43.48
2023-08-11T13:17:39.430Z,43.48
2023-08-11T13:20:10.618Z,46.78
2023-08-11T13:22:37.930Z,43.81
2023-08-11T13:25:04.936Z,44.54
2023-08-11T13:27:31.574Z,46.44
2023-08-11T13:29:58.023Z,45.96
2023-08-11T13:32:24.457Z,46.65
2023-08-11T13:34:50.836Z,44.05
2023-08-11T13:37:17.209Z,43.58
2023-08-11T13:39:43.644Z,44.92
2023-08-11T13:42:11.843Z,44.03
2023-08-11T13:44:38.283Z,43.13
2023-08-11T13:47:05.482Z,44.42
2023-08-11T13:49:31.868Z,44.08
2023-08-11T13:51:58.883Z,45.34
2023-08-11T13:54:25.326Z,43.83
2023-08-11T13:56:51.769Z,43.71
2023-08-11T13:59:18.252Z,44.31
2023-08-11T14:01:44.751Z,44.94
2023-08-11T14:04:11.134Z,44.16
2023-08-11T14:06:37.514Z,44.98
2023-08-11T14:09:04.191Z,46.70
2023-08-11T14:11:30.817Z,45.68
2023-08-11T14:13:57.726Z,44.74
2023-08-11T14:16:24.316Z,44.77
2023-08-11T14:18:51.375Z,44.38
2023-08-11T14:21:19.627Z,44.58
2023-08-11T14:23:47.810Z,45.83
2023-08-11T14:26:14.214Z,44.15
2023-08-11T14:28:40.663Z,44.86
2023-08-11T14:31:07.477Z,44.16
2023-08-11T14:33:34.002Z,44.04
2023-08-11T14:36:03.771Z,44.60
2023-08-11T14:38:30.480Z,44.17
2023-08-11T14:40:56.934Z,43.84
2023-08-11T14:43:23.328Z,46.94
2023-08-11T14:45:49.708Z,47.47
2023-08-11T14:48:16.143Z,47.55
2023-08-11T14:50:42.546Z,45.49
2023-08-11T14:53:08.923Z,45.42
2023-08-11T14:55:35.317Z,44.88
2023-08-11T14:58:01.771Z,45.52
2023-08-11T15:00:28.193Z,46.05
2023-08-11T15:02:54.661Z,46.09
2023-08-11T15:05:21.149Z,45.14
2023-08-11T15:07:47.583Z,43.34
2023-08-11T15:10:14.041Z,45.21
2023-08-11T15:12:42.604Z,45.96
2023-08-11T15:15:09.426Z,46.28
2023-08-11T15:17:35.905Z,44.42
2023-08-11T15:20:03.344Z,44.35
2023-08-11T15:22:29.840Z,45.90
2023-08-11T15:24:56.233Z,46.33
2023-08-11T15:27:22.638Z,45.42
2023-08-11T15:29:49.025Z,43.96
2023-08-11T15:32:15.505Z,42.73
2023-08-11T15:34:41.923Z,45.37
2023-08-11T15:37:08.365Z,41.76
2023-08-11T15:39:34.847Z,43.30
2023-08-11T15:42:01.266Z,42.08
2023-08-11T15:44:27.853Z,42.09
2023-08-11T15:46:54.276Z,42.57
2023-08-11T15:49:20.746Z,43.88
2023-08-11T15:51:47.224Z,43.59
2023-08-11T15:54:13.623Z,45.81
2023-08-11T15:56:40.047Z,45.06
2023-08-11T15:59:07.018Z,44.36
2023-08-11T16:01:33.588Z,43.98
2023-08-11T16:04:00.137Z,44.46
2023-08-11T16:06:26.612Z,42.70
2023-08-11T16:08:53.025Z,40.90
2023-08-11T16:11:19.467Z,40.56
2023-08-11T16:13:46.004Z,41.29
2023-08-11T16:16:12.471Z,41.99
2023-08-11T16:18:38.955Z,43.47
2023-08-11T16:21:06.774Z,41.30
2023-08-11T16:23:34.540Z,41.05
2023-08-11T16:26:02.202Z,41.56
2023-08-11T16:28:29.371Z,43.95
2023-08-11T16:30:56.592Z,41.31
2023-08-11T16:33:23.034Z,43.87
2023-08-11T16:35:49.649Z,44.05
2023-08-11T16:38:16.319Z,43.53
2023-08-11T16:40:42.729Z,41.04
2023-08-11T16:43:10.640Z,41.76
2023-08-11T16:45:37.205Z,46.13
2023-08-11T16:48:04.230Z,44.82
2023-08-11T16:50:31.050Z,45.11
2023-08-11T16:52:57.570Z,43.27
2023-08-11T16:55:24.201Z,44.02
2023-08-11T16:57:50.666Z,42.47
2023-08-11T17:00:17.685Z,43.15
2023-08-11T17:02:44.401Z,43.70
2023-08-11T17:05:12.363Z,45.88
2023-08-11T17:07:38.811Z,46.88
2023-08-11T17:10:06.227Z,49.84
2023-08-11T17:12:32.821Z,50.78
2023-08-11T17:14:59.294Z,51.19
2023-08-11T17:17:25.750Z,53.70
2023-08-11T17:19:52.180Z,54.03
2023-08-11T17:22:18.705Z,53.33
2023-08-11T17:24:45.351Z,53.22
2023-08-11T17:27:11.782Z,53.46
2023-08-11T17:29:38.195Z,53.24
2023-08-11T17:32:06.720Z,54.28
2023-08-11T17:34:35.844Z,55.58
2023-08-11T17:37:06.913Z,55.73
2023-08-11T17:39:33.717Z,55.43
2023-08-11T17:42:05.676Z,55.54
2023-08-11T17:44:32.261Z,55.12
2023-08-11T17:46:58.728Z,54.54
2023-08-11T17:49:25.134Z,54.70
2023-08-11T17:51:51.535Z,56.35
2023-08-11T17:54:19.533Z,56.81
2023-08-11T17:56:45.991Z,56.54
2023-08-11T17:59:12.518Z,56.59
2023-08-11T18:01:39.006Z,57.34
2023-08-11T18:04:07.970Z,57.09
2023-08-11T18:06:35.805Z,58.46
2023-08-11T18:09:05.363Z,59.45
2023-08-11T18:11:33.037Z,59.28
2023-08-11T18:13:59.424Z,60.05
2023-08-11T18:16:27.797Z,59.83
2023-08-11T18:18:54.365Z,60.34
2023-08-11T18:21:21.607Z,60.69
2023-08-11T18:23:48.540Z,60.49
2023-08-11T18:26:16.893Z,59.45
2023-08-11T18:28:43.788Z,60.34
2023-08-11T18:31:10.329Z,63.33
2023-08-11T18:33:36.819Z,63.46
2023-08-11T18:36:03.420Z,63.00
2023-08-11T18:38:29.869Z,62.57
2023-08-11T18:40:56.294Z,62.75
2023-08-11T18:43:22.703Z,64.93
2023-08-11T18:45:49.284Z,65.84
2023-08-11T18:48:16.225Z,65.47
2023-08-11T18:50:42.641Z,65.82
2023-08-11T18:53:09.096Z,65.38
2023-08-11T18:55:35.529Z,65.58
2023-08-11T18:58:01.915Z,65.98
2023-08-11T19:00:28.304Z,66.33
2023-08-11T19:02:54.896Z,66.21
2023-08-11T19:05:21.367Z,66.51
2023-08-11T19:07:47.753Z,66.39
2023-08-11T19:10:14.150Z,66.55
2023-08-11T19:12:40.602Z,66.70
2023-08-11T19:15:07.342Z,66.96
2023-08-11T19:17:33.727Z,67.05
2023-08-11T19:20:00.461Z,66.92
2023-08-11T19:22:26.908Z,67.75
2023-08-11T19:24:53.295Z,68.25
2023-08-11T19:27:19.687Z,68.19
2023-08-11T19:29:46.063Z,68.28
2023-08-11T19:32:13.194Z,68.62
2023-08-11T19:34:39.829Z,68.49
2023-08-11T19:37:06.217Z,68.95
2023-08-11T19:39:32.634Z,69.08
2023-08-11T19:41:59.039Z,69.17
2023-08-11T19:44:25.474Z,69.07
2023-08-11T19:46:52.089Z,69.08
2023-08-11T19:49:21.362Z,69.40
2023-08-11T19:51:48.566Z,69.60
2023-08-11T19:54:15.315Z,69.83
2023-08-11T19:56:43.725Z,70.21
2023-08-11T19:59:10.167Z,70.29
2023-08-11T20:01:36.641Z,70.28
2023-08-11T20:04:03.056Z,70.76
2023-08-11T20:06:29.529Z,70.70
2023-08-11T20:08:56.019Z,71.29
2023-08-11T20:11:22.469Z,71.23
2023-08-11T20:13:48.913Z,71.01
2023-08-11T20:16:15.359Z,70.94
2023-08-11T20:18:41.834Z,70.82
2023-08-11T20:21:08.715Z,70.96
2023-08-11T20:23:35.808Z,71.40
2023-08-11T20:26:02.293Z,71.59
2023-08-11T20:28:28.670Z,71.59
2023-08-11T20:31:00.692Z,71.57
2023-08-11T20:33:27.162Z,71.83
2023-08-11T20:35:53.674Z,72.29
2023-08-11T20:38:20.233Z,72.26
2023-08-11T20:40:47.835Z,72.30
2023-08-11T20:43:14.639Z,72.31
2023-08-11T20:45:41.052Z,72.34
2023-08-11T20:48:07.508Z,72.64
2023-08-11T20:50:37.171Z,72.68
2023-08-11T20:53:03.796Z,73.09
2023-08-11T20:55:30.268Z,73.72
2023-08-11T20:57:56.664Z,73.86
2023-08-11T21:00:23.505Z,74.09
2023-08-11T21:02:50.099Z,74.21
2023-08-11T21:05:16.666Z,74.38
2023-08-11T21:07:43.078Z,74.72
2023-08-11T21:10:10.040Z,74.64
2023-08-11T21:12:36.495Z,74.59
2023-08-11T21:15:03.863Z,73.88
2023-08-11T21:17:30.302Z,73.52
2023-08-11T21:19:56.742Z,71.89
2023-08-11T21:22:23.194Z,71.54
2023-08-11T21:24:49.613Z,73.78
2023-08-11T21:27:17.661Z,74.93
2023-08-11T21:29:44.353Z,76.04
2023-08-11T21:32:10.862Z,76.40
2023-08-11T21:34:37.268Z,76.54
2023-08-11T21:37:04.750Z,76.71
2023-08-11T21:39:33.306Z,77.20
2023-08-11T21:41:59.738Z,77.47
2023-08-11T21:44:26.118Z,77.51
2023-08-11T21:46:52.511Z,77.70
2023-08-11T21:49:19.004Z,77.65
2023-08-11T21:51:45.407Z,78.35
2023-08-11T21:54:11.840Z,78.75
2023-08-11T21:56:38.243Z,79.44
2023-08-11T21:59:04.664Z,80.06
2023-08-11T22:01:31.066Z,81.09
2023-08-11T22:03:59.376Z,81.49
2023-08-11T22:06:25.777Z,82.14
2023-08-11T22:08:52.151Z,82.49
2023-08-11T22:11:35.418Z,82.99
2023-08-11T22:14:03.482Z,83.57
2023-08-11T22:16:29.960Z,83.84
2023-08-11T22:18:56.522Z,84.71
2023-08-11T22:21:22.956Z,85.13
2023-08-11T22:23:49.375Z,85.33
2023-08-11T22:26:15.816Z,85.38
2023-08-11T22:28:42.224Z,85.39
2023-08-11T22:31:08.644Z,86.14
2023-08-11T22:33:35.211Z,85.68
2023-08-11T22:36:01.598Z,86.16
2023-08-11T22:38:28.058Z,85.97
2023-08-11T22:40:54.540Z,86.36
2023-08-11T22:43:21.143Z,86.91
2023-08-11T22:45:47.577Z,86.89
2023-08-11T22:48:14.096Z,87.20
2023-08-11T22:50:40.947Z,87.19
2023-08-11T22:53:07.380Z,87.60
2023-08-11T22:55:33.775Z,87.44
2023-08-11T22:58:00.307Z,88.37
2023-08-11T23:00:27.142Z,88.42
2023-08-11T23:02:53.830Z,88.21
2023-08-11T23:05:20.223Z,88.30
2023-08-11T23:07:46.600Z,88.41
2023-08-11T23:10:13.094Z,88.35
2023-08-11T23:12:39.521Z,88.67
2023-08-11T23:15:06.591Z,88.77
2023-08-11T23:17:34.113Z,89.07
2023-08-11T23:20:01.847Z,89.30
2023-08-11T23:22:28.456Z,89.18
2023-08-11T23:24:55.145Z,89.46
2023-08-11T23:27:23.344Z,89.74
2023-08-11T23:29:50.294Z,89.80
2023-08-11T23:32:16.690Z,89.52
2023-08-11T23:34:43.072Z,90.01
2023-08-11T23:37:09.726Z,89.98
2023-08-11T23:39:36.268Z,90.24
2023-08-11T23:42:05.032Z,90.23
2023-08-11T23:44:31.845Z,90.53
2023-08-11T23:46:58.233Z,89.95
2023-08-11T23:49:24.647Z,90.34
2023-08-11T23:51:51.023Z,89.90
2023-08-11T23:54:17.403Z,90.15
2023-08-11T23:56:43.809Z,89.64
2023-08-11T23:59:10.194Z,89.99
